createdAt,value
2019-05-16T00:02:01.453Z,11.95
2019-05-16T00:04:28.507Z,9.90
2019-05-16T00:06:55.703Z,11.38
2019-05-16T00:09:22.715Z,10.75
2019-05-16T00:11:49.899Z,13.22
2019-05-16T00:14:18.858Z,10.63
2019-05-16T00:16:48.227Z,11.35
2019-05-16T00:19:14.788Z,10.55
2019-05-16T00:21:41.920Z,10.58
2019-05-16T00:24:08.963Z,11.68
2019-05-16T00:26:38.574Z,10.25
2019-05-16T00:29:07.603Z,10.85
2019-05-16T00:31:34.578Z,13.03
2019-05-16T00:34:01.804Z,11.40
2019-05-16T00:36:28.962Z,11.22
2019-05-16T00:38:57.832Z,10.32
2019-05-16T00:41:25.029Z,10.60
2019-05-16T00:43:52.512Z,9.73
2019-05-16T00:46:20.177Z,10.90
2019-05-16T00:48:48.712Z,9.85
2019-05-16T00:51:18.274Z,11.68
2019-05-16T00:53:45.530Z,11.15
2019-05-16T00:56:13.174Z,13.32
2019-05-16T00:58:41.176Z,13.10
2019-05-16T01:01:08.726Z,11.00
2019-05-16T01:03:37.827Z,10.88
2019-05-16T01:06:15.798Z,15.20
2019-05-16T01:08:34.631Z,9.70
2019-05-16T01:11:01.888Z,12.18
2019-05-16T01:13:28.879Z,11.60
2019-05-16T01:15:58.744Z,9.63
2019-05-16T01:18:25.856Z,11.35
2019-05-16T01:20:53.323Z,12.13
2019-05-16T01:23:20.672Z,11.65
2019-05-16T01:25:48.348Z,9.60
2019-05-16T01:28:18.012Z,11.20
2019-05-16T01:30:45.244Z,10.95
2019-05-16T01:33:12.688Z,10.00
2019-05-16T01:35:41.824Z,9.15
2019-05-16T01:38:08.925Z,9.63
2019-05-16T01:40:38.544Z,11.78
2019-05-16T01:43:05.836Z,9.88
2019-05-16T01:45:32.999Z,11.63
2019-05-16T01:48:00.263Z,11.28
2019-05-16T01:50:28.349Z,10.40
2019-05-16T01:52:57.809Z,8.83
2019-05-16T01:55:24.691Z,9.93
2019-05-16T01:57:52.350Z,11.40
2019-05-16T02:00:25.049Z,9.80
2019-05-16T02:02:49.077Z,9.50
2019-05-16T02:05:18.595Z,12.33
2019-05-16T02:07:47.861Z,10.82
2019-05-16T02:10:17.898Z,10.50
2019-05-16T02:12:44.318Z,11.75
2019-05-16T02:15:12.095Z,11.88
2019-05-16T02:17:39.283Z,13.18
2019-05-16T02:20:08.671Z,13.95
2019-05-16T02:22:38.701Z,13.43
2019-05-16T02:25:08.432Z,15.53
2019-05-16T02:27:38.208Z,15.85
2019-05-16T02:30:07.521Z,15.35
2019-05-16T02:32:34.622Z,16.07
2019-05-16T02:35:01.840Z,18.37
2019-05-16T02:37:30.865Z,20.32
2019-05-16T02:40:01.299Z,17.12
2019-05-16T02:42:31.102Z,18.42
2019-05-16T02:45:01.883Z,18.48
2019-05-16T02:47:31.476Z,22.00
2019-05-16T02:50:00.783Z,16.70
2019-05-16T02:52:26.770Z,19.23
2019-05-16T02:54:54.000Z,20.65
2019-05-16T02:57:22.529Z,19.15
2019-05-16T02:59:50.943Z,20.80
2019-05-16T03:02:20.615Z,18.80
2019-05-16T03:04:51.381Z,23.20
2019-05-16T03:07:36.473Z,18.45
2019-05-16T03:09:47.283Z,17.90
2019-05-16T03:12:14.791Z,19.52
2019-05-16T03:14:44.243Z,18.55
2019-05-16T03:17:14.484Z,17.95
2019-05-16T03:19:43.297Z,18.17
2019-05-16T03:22:14.779Z,18.12
2019-05-16T03:24:42.309Z,19.92
2019-05-16T03:27:10.840Z,22.30
2019-05-16T03:29:41.587Z,19.27
2019-05-16T03:32:13.265Z,17.12
2019-05-16T03:34:36.757Z,17.27
2019-05-16T03:37:05.007Z,15.40
2019-05-16T03:39:32.685Z,17.95
2019-05-16T03:42:01.044Z,19.57
2019-05-16T03:44:31.466Z,17.35
2019-05-16T03:47:00.778Z,16.20
2019-05-16T03:49:26.173Z,19.90
2019-05-16T03:51:53.510Z,20.43
2019-05-16T03:54:21.143Z,17.23
2019-05-16T03:56:51.430Z,19.32
2019-05-16T03:59:17.700Z,19.52
2019-05-16T04:01:44.557Z,20.43
2019-05-16T04:04:12.209Z,22.50
2019-05-16T04:06:41.618Z,23.05
2019-05-16T04:09:11.839Z,23.10
2019-05-16T04:11:37.622Z,23.20
2019-05-16T04:14:05.374Z,22.05
2019-05-16T04:16:32.256Z,23.62
2019-05-16T04:19:01.950Z,21.85
2019-05-16T04:21:31.862Z,21.73
2019-05-16T04:23:57.090Z,24.55
2019-05-16T04:26:24.019Z,24.80
2019-05-16T04:28:51.584Z,28.27
2019-05-16T04:31:22.017Z,25.48
2019-05-16T04:33:51.393Z,25.62
2019-05-16T04:36:17.349Z,24.27
2019-05-16T04:38:46.810Z,23.60
2019-05-16T04:41:13.205Z,24.75
2019-05-16T04:43:41.588Z,24.32
2019-05-16T04:46:11.661Z,24.52
2019-05-16T04:48:41.437Z,25.68
2019-05-16T04:51:06.972Z,24.23
2019-05-16T04:53:34.145Z,24.95
2019-05-16T04:56:02.015Z,21.45
2019-05-16T04:58:31.724Z,20.08
2019-05-16T05:01:01.268Z,21.75
2019-05-16T05:03:27.425Z,18.10
2019-05-16T05:05:54.581Z,20.05
2019-05-16T05:08:22.587Z,17.80
2019-05-16T05:10:51.489Z,20.72
2019-05-16T05:13:22.213Z,21.45
2019-05-16T05:15:50.975Z,30.92
2019-05-16T05:18:17.561Z,25.77
2019-05-16T05:20:44.656Z,25.48
2019-05-16T05:23:12.043Z,24.18
2019-05-16T05:25:40.439Z,22.73
2019-05-16T05:28:09.879Z,23.47
2019-05-16T05:30:36.708Z,24.95
2019-05-16T05:33:07.232Z,22.52
2019-05-16T05:35:34.193Z,27.07
2019-05-16T05:38:01.943Z,31.27
2019-05-16T05:40:29.724Z,35.98
2019-05-16T05:42:56.905Z,32.60
2019-05-16T05:45:23.818Z,28.45
2019-05-16T05:47:51.454Z,23.95
2019-05-16T05:50:20.123Z,25.30
2019-05-16T05:52:47.288Z,22.60
2019-05-16T05:55:14.636Z,18.05
2019-05-16T05:57:43.806Z,19.50
2019-05-16T06:00:12.149Z,15.53
2019-05-16T06:02:40.172Z,10.08
2019-05-16T06:05:10.635Z,15.93
2019-05-16T06:07:37.248Z,15.13
2019-05-16T06:10:06.854Z,14.40
2019-05-16T06:12:33.867Z,15.38
2019-05-16T06:15:08.481Z,15.72
2019-05-16T06:17:32.787Z,17.85
2019-05-16T06:20:00.299Z,15.25
2019-05-16T06:22:29.905Z,16.10
2019-05-16T06:24:57.195Z,17.92
2019-05-16T06:27:24.331Z,14.87
2019-05-16T06:29:51.423Z,17.52
2019-05-16T06:32:19.795Z,12.65
2019-05-16T06:34:47.036Z,16.73
2019-05-16T06:37:14.046Z,16.05
2019-05-16T06:39:45.214Z,16.55
2019-05-16T06:42:10.301Z,14.65
2019-05-16T06:44:39.963Z,16.23
2019-05-16T06:47:17.054Z,12.30
2019-05-16T06:49:35.061Z,11.22
2019-05-16T06:52:02.639Z,11.33
2019-05-16T06:54:29.993Z,8.88
2019-05-16T06:56:57.836Z,8.35
2019-05-16T06:59:26.755Z,8.58
2019-05-16T07:01:53.893Z,6.60
2019-05-16T07:04:21.152Z,9.13
2019-05-16T07:06:58.097Z,9.23
2019-05-16T07:09:17.514Z,10.38
2019-05-16T07:11:44.539Z,9.65
2019-05-16T07:14:12.883Z,10.10
2019-05-16T07:16:40.619Z,10.10
2019-05-16T07:19:10.226Z,9.10
2019-05-16T07:21:36.700Z,8.98
2019-05-16T07:24:03.990Z,8.03
2019-05-16T07:26:31.110Z,7.83
2019-05-16T07:29:00.323Z,7.37
2019-05-16T07:31:27.084Z,7.12
2019-05-16T07:33:54.359Z,5.30
2019-05-16T07:36:22.104Z,5.28
2019-05-16T07:38:50.761Z,4.55
2019-05-16T07:41:20.433Z,5.30
2019-05-16T07:43:47.561Z,7.53
2019-05-16T07:46:15.306Z,4.33
2019-05-16T07:48:42.666Z,4.20
2019-05-16T07:51:10.303Z,4.40
2019-05-16T07:53:40.082Z,3.55
2019-05-16T07:56:07.392Z,4.92
2019-05-16T07:58:34.283Z,4.30
2019-05-16T08:01:07.588Z,3.87
2019-05-16T08:03:31.050Z,3.20
2019-05-16T08:06:01.070Z,3.20
2019-05-16T08:08:31.005Z,2.67
2019-05-16T08:10:57.087Z,3.35
2019-05-16T08:13:24.513Z,1.85
2019-05-16T08:15:52.019Z,2.83
2019-05-16T08:18:21.495Z,1.60
2019-05-16T08:20:52.229Z,2.10
2019-05-16T08:23:21.869Z,4.17
2019-05-16T08:25:50.456Z,2.72
2019-05-16T08:28:16.381Z,2.00
2019-05-16T08:30:43.578Z,2.00
2019-05-16T08:33:13.560Z,1.85
2019-05-16T08:35:41.323Z,2.60
2019-05-16T08:38:13.304Z,2.22
2019-05-16T08:41:01.275Z,2.50
2019-05-16T08:43:06.731Z,2.62
2019-05-16T08:45:34.086Z,3.60
2019-05-16T08:48:01.621Z,3.22
2019-05-16T08:50:34.731Z,3.30
2019-05-16T08:53:02.572Z,5.03
2019-05-16T08:55:27.137Z,5.15
2019-05-16T08:57:54.147Z,3.50
2019-05-16T09:00:22.217Z,3.85
2019-05-16T09:02:52.451Z,3.47
2019-05-16T09:05:22.539Z,3.92
2019-05-16T09:07:48.572Z,3.37
2019-05-16T09:12:47.735Z,2.80
2019-05-16T09:15:17.113Z,3.10
2019-05-16T09:17:44.049Z,3.02
2019-05-16T09:20:12.055Z,3.65
2019-05-16T09:22:39.147Z,3.30
2019-05-16T09:25:08.028Z,2.98
2019-05-16T09:27:38.077Z,3.90
2019-05-16T09:30:07.333Z,3.33
2019-05-16T09:32:37.002Z,3.58
2019-05-16T09:35:08.608Z,3.30
2019-05-16T09:37:37.607Z,4.35
2019-05-16T09:40:07.354Z,3.58
2019-05-16T09:42:37.876Z,4.45
2019-05-16T09:45:07.354Z,3.15
2019-05-16T09:47:34.658Z,3.42
2019-05-16T09:50:06.780Z,3.08
2019-05-16T09:52:33.133Z,3.10
2019-05-16T09:55:00.854Z,2.90
2019-05-16T09:57:28.032Z,2.98
2019-05-16T09:59:57.191Z,3.90
2019-05-16T10:02:27.199Z,2.83
2019-05-16T10:04:54.204Z,3.40
2019-05-16T10:07:21.728Z,3.40
2019-05-16T10:09:50.198Z,3.75
2019-05-16T10:12:18.654Z,3.20
2019-05-16T10:14:47.015Z,3.45
2019-05-16T10:17:14.504Z,3.47
2019-05-16T10:19:41.944Z,3.83
2019-05-16T10:22:08.840Z,4.00
2019-05-16T10:24:37.851Z,3.30
2019-05-16T10:27:06.608Z,5.10
2019-05-16T10:29:34.026Z,3.22
2019-05-16T10:32:01.174Z,3.83
2019-05-16T10:34:28.223Z,3.47
2019-05-16T10:36:57.520Z,3.42
2019-05-16T10:39:26.789Z,4.17
2019-05-16T10:41:53.620Z,3.60
2019-05-16T10:44:20.529Z,3.22
2019-05-16T10:46:48.073Z,4.20
2019-05-16T10:49:16.679Z,2.58
2019-05-16T10:51:44.117Z,4.67
2019-05-16T10:54:14.196Z,2.85
2019-05-16T10:56:40.716Z,3.72
2019-05-16T10:59:46.828Z,5.90
2019-05-16T11:01:37.147Z,3.75
2019-05-16T11:04:07.568Z,3.25
2019-05-16T11:06:37.110Z,3.92
2019-05-16T11:09:06.532Z,2.83
2019-05-16T11:11:33.796Z,4.35
2019-05-16T11:14:01.380Z,6.30
2019-05-16T11:16:28.459Z,5.50
2019-05-16T11:19:13.518Z,5.62
2019-05-16T11:21:26.746Z,7.53
2019-05-16T11:23:53.661Z,6.08
2019-05-16T11:26:20.747Z,7.12
2019-05-16T11:28:48.896Z,8.60
2019-05-16T11:31:17.635Z,7.65
2019-05-16T11:33:47.558Z,7.37
2019-05-16T11:36:16.716Z,6.95
2019-05-16T11:38:47.259Z,7.60
2019-05-16T11:41:13.165Z,7.53
2019-05-16T11:43:40.095Z,8.95
2019-05-16T11:46:07.646Z,9.15
2019-05-16T11:48:37.422Z,7.28
2019-05-16T11:51:07.060Z,5.83
2019-05-16T11:53:34.564Z,7.95
2019-05-16T11:56:02.160Z,10.63
2019-05-16T11:58:29.706Z,9.08
2019-05-16T12:00:57.636Z,8.70
2019-05-16T12:03:27.864Z,9.08
2019-05-16T12:05:54.055Z,7.35
2019-05-16T12:08:21.390Z,8.38
2019-05-16T12:10:48.388Z,7.37
2019-05-16T12:13:25.305Z,6.40
2019-05-16T12:15:44.548Z,6.58
2019-05-16T12:18:11.683Z,8.60
2019-05-16T12:20:38.701Z,8.53
2019-05-16T12:23:07.932Z,8.68
2019-05-16T12:25:36.721Z,7.87
2019-05-16T12:28:03.931Z,5.80
2019-05-16T12:30:31.371Z,6.40
2019-05-16T12:32:58.413Z,6.12
2019-05-16T12:35:27.542Z,7.67
2019-05-16T12:37:56.916Z,9.35
2019-05-16T12:40:23.249Z,8.60
2019-05-16T12:42:50.235Z,9.60
2019-05-16T12:45:17.784Z,9.68
2019-05-16T12:47:47.237Z,9.00
2019-05-16T12:50:17.806Z,8.25
2019-05-16T12:52:47.438Z,8.40
2019-05-16T12:55:16.582Z,7.95
2019-05-16T12:57:43.923Z,7.28
2019-05-16T13:00:16.339Z,6.15
2019-05-16T13:02:43.373Z,6.50
2019-05-16T13:05:11.461Z,5.83
2019-05-16T13:07:38.354Z,7.28
2019-05-16T13:10:06.993Z,7.17
2019-05-16T13:12:37.411Z,6.08
2019-05-16T13:15:07.059Z,5.83
2019-05-16T13:17:36.926Z,4.97
2019-05-16T13:20:07.790Z,5.37
2019-05-16T13:22:34.254Z,6.37
2019-05-16T13:25:01.501Z,7.28
2019-05-16T13:27:29.199Z,6.70
2019-05-16T13:29:58.056Z,6.55
2019-05-16T13:32:27.035Z,6.62
2019-05-16T13:34:54.197Z,8.95
2019-05-16T13:37:21.364Z,7.40
2019-05-16T13:39:48.666Z,6.80
2019-05-16T13:42:16.674Z,7.50
2019-05-16T13:44:43.967Z,12.20
2019-05-16T13:47:11.319Z,8.38
2019-05-16T13:49:38.900Z,7.83
2019-05-16T13:52:07.283Z,8.35
2019-05-16T13:54:36.341Z,8.98
2019-05-16T13:57:03.626Z,8.70
2019-05-16T13:59:30.945Z,8.68
2019-05-16T14:01:58.216Z,10.63
2019-05-16T14:04:26.431Z,9.73
2019-05-16T14:06:55.588Z,9.45
2019-05-16T14:09:22.757Z,10.50
2019-05-16T14:11:49.663Z,11.57
2019-05-16T14:14:32.114Z,14.95
2019-05-16T14:16:46.918Z,12.75
2019-05-16T14:19:17.280Z,11.12
2019-05-16T14:21:43.752Z,10.98
2019-05-16T14:24:11.407Z,28.65
2019-05-16T14:26:38.454Z,60.73
2019-05-16T14:29:07.887Z,53.15
2019-05-16T14:31:37.386Z,70.83
2019-05-16T14:34:06.186Z,59.83
2019-05-16T14:36:32.848Z,37.78
2019-05-16T14:39:01.879Z,26.05
2019-05-16T14:41:29.118Z,28.83
2019-05-16T14:43:56.435Z,19.30
2019-05-16T14:46:23.403Z,18.48
2019-05-16T14:48:50.640Z,20.15
2019-05-16T14:51:18.349Z,22.05
2019-05-16T14:53:47.114Z,19.55
2019-05-16T14:56:15.068Z,20.48
2019-05-16T14:58:42.455Z,21.17
2019-05-16T15:01:09.989Z,17.90
2019-05-16T15:03:37.302Z,17.52
2019-05-16T15:06:04.687Z,19.50
2019-05-16T15:08:31.892Z,19.82
2019-05-16T15:10:59.128Z,16.60
2019-05-16T15:13:27.958Z,15.95
2019-05-16T15:15:56.915Z,20.08
2019-05-16T15:18:24.449Z,21.68
2019-05-16T15:20:51.677Z,20.40
2019-05-16T15:23:18.679Z,18.67
2019-05-16T15:25:45.779Z,21.05
2019-05-16T15:28:12.863Z,17.30
2019-05-16T15:30:39.865Z,11.50
2019-05-16T15:33:08.576Z,12.03
2019-05-16T15:35:38.138Z,12.45
2019-05-16T15:38:07.477Z,16.00
2019-05-16T15:40:34.419Z,12.05
2019-05-16T15:43:01.763Z,10.75
2019-05-16T15:45:43.536Z,15.53
2019-05-16T15:48:10.517Z,16.97
2019-05-16T15:50:39.752Z,22.87
2019-05-16T15:53:08.067Z,12.18
2019-05-16T15:55:36.389Z,15.15
2019-05-16T15:58:03.755Z,14.10
2019-05-16T16:00:47.439Z,16.60
2019-05-16T16:03:13.848Z,17.92
2019-05-16T16:05:41.192Z,15.35
2019-05-16T16:08:08.194Z,14.55
2019-05-16T16:10:40.730Z,14.60
2019-05-16T16:13:08.497Z,17.52
2019-05-16T16:15:49.809Z,21.93
2019-05-16T16:18:08.908Z,22.58
2019-05-16T16:20:35.504Z,28.27
2019-05-16T16:23:03.506Z,31.25
2019-05-16T16:25:31.294Z,50.48
2019-05-16T16:27:58.207Z,21.37
2019-05-16T16:30:27.383Z,67.25
2019-05-16T16:32:54.369Z,37.40
2019-05-16T16:35:21.570Z,67.40
2019-05-16T16:37:48.707Z,22.60
2019-05-16T16:40:17.636Z,25.25
2019-05-16T16:42:47.469Z,44.15
2019-05-16T16:45:16.758Z,26.50
2019-05-16T16:47:46.690Z,33.70
2019-05-16T16:50:17.144Z,26.40
2019-05-16T16:52:44.380Z,36.33
2019-05-16T16:55:11.881Z,25.95
2019-05-16T16:57:39.038Z,22.82
2019-05-16T17:00:08.794Z,22.35
2019-05-16T17:02:37.317Z,30.12
2019-05-16T17:05:11.534Z,26.10
2019-05-16T17:07:37.005Z,19.98
2019-05-16T17:10:06.965Z,21.17
2019-05-16T17:12:40.349Z,20.08
2019-05-16T17:15:08.642Z,25.27
2019-05-16T17:17:37.395Z,22.62
2019-05-16T17:20:07.649Z,24.27
2019-05-16T17:22:37.443Z,19.23
2019-05-16T17:25:07.184Z,20.97
2019-05-16T17:27:37.327Z,23.12
2019-05-16T17:30:13.724Z,24.30
2019-05-16T17:32:41.179Z,20.57
2019-05-16T17:35:10.400Z,18.65
2019-05-16T17:37:37.642Z,22.62
2019-05-16T17:40:05.313Z,27.52
2019-05-16T17:42:34.546Z,22.45
2019-05-16T17:45:01.296Z,25.72
2019-05-16T17:47:28.418Z,28.75
2019-05-16T17:49:55.813Z,26.73
2019-05-16T17:52:22.979Z,39.85
2019-05-16T17:54:53.144Z,36.30
2019-05-16T17:57:19.364Z,28.45
2019-05-16T17:59:47.968Z,42.67
2019-05-16T18:02:17.248Z,39.38
2019-05-16T18:04:46.989Z,43.70
2019-05-16T18:07:13.787Z,46.98
2019-05-16T18:09:42.997Z,42.33
2019-05-16T18:12:09.950Z,44.65
2019-05-16T18:14:37.446Z,42.03
2019-05-16T18:17:04.466Z,39.58
2019-05-16T18:19:31.532Z,37.90
2019-05-16T18:21:58.612Z,39.23
2019-05-16T18:24:27.433Z,39.60
2019-05-16T18:26:54.548Z,36.75
2019-05-16T18:29:21.787Z,37.70
2019-05-16T18:31:48.682Z,41.23
2019-05-16T18:34:16.900Z,42.48
2019-05-16T18:36:46.553Z,42.38
2019-05-16T18:39:13.364Z,46.13
2019-05-16T18:41:40.751Z,51.45
2019-05-16T18:44:07.665Z,41.02
2019-05-16T18:46:36.333Z,40.58
2019-05-16T18:49:03.922Z,45.03
2019-05-16T18:51:31.319Z,53.42
2019-05-16T18:53:59.162Z,55.30
2019-05-16T18:56:27.161Z,56.23
2019-05-16T18:58:54.356Z,60.00
2019-05-16T19:01:21.596Z,49.58
2019-05-16T19:03:48.963Z,46.80
2019-05-16T19:06:16.969Z,47.48
2019-05-16T19:08:44.284Z,45.05
2019-05-16T19:11:11.533Z,51.98
2019-05-16T19:13:38.461Z,79.17
2019-05-16T19:16:06.409Z,73.80
2019-05-16T19:18:33.846Z,92.22
2019-05-16T19:21:01.717Z,103.78
2019-05-16T19:23:28.922Z,79.30
2019-05-16T19:25:56.896Z,73.47
2019-05-16T19:28:28.268Z,59.18
2019-05-16T19:30:53.598Z,56.40
2019-05-16T19:33:20.839Z,53.68
2019-05-16T19:35:49.035Z,58.48
2019-05-16T19:38:17.083Z,63.20
2019-05-16T19:40:46.788Z,60.88
2019-05-16T19:43:13.500Z,65.90
2019-05-16T19:45:40.416Z,59.05
2019-05-16T19:48:07.680Z,63.70
2019-05-16T19:50:37.304Z,60.15
2019-05-16T19:53:07.610Z,53.65
2019-05-16T19:55:36.593Z,56.40
2019-05-16T19:58:06.568Z,90.70
2019-05-16T20:00:33.414Z,76.53
2019-05-16T20:03:00.715Z,66.95
2019-05-16T20:05:27.786Z,100.33
2019-05-16T20:07:54.726Z,89.55
2019-05-16T20:10:22.392Z,87.08
2019-05-16T20:12:49.380Z,70.00
2019-05-16T20:15:17.353Z,73.00
2019-05-16T20:17:51.956Z,63.38
2019-05-16T20:20:18.408Z,67.05
2019-05-16T20:22:46.243Z,68.72
2019-05-16T20:25:16.226Z,67.95
2019-05-16T20:27:42.770Z,68.67
2019-05-16T20:30:11.216Z,65.42
2019-05-16T20:32:38.495Z,61.30
2019-05-16T20:35:08.777Z,60.17
2019-05-16T20:37:36.723Z,57.80
2019-05-16T20:40:08.464Z,63.48
2019-05-16T20:42:33.989Z,65.22
2019-05-16T20:45:01.275Z,70.72
2019-05-16T20:47:28.460Z,66.77
2019-05-16T20:49:56.988Z,69.30
2019-05-16T20:52:26.761Z,64.53
2019-05-16T20:54:53.863Z,68.70
2019-05-16T20:57:20.889Z,72.30
2019-05-16T20:59:49.138Z,73.55
2019-05-16T21:02:16.483Z,65.37
2019-05-16T21:04:46.416Z,72.10
2019-05-16T21:07:13.367Z,79.30
2019-05-16T21:09:40.551Z,66.22
2019-05-16T21:12:08.368Z,65.15
2019-05-16T21:14:35.528Z,64.30
2019-05-16T21:17:02.881Z,62.70
2019-05-16T21:19:30.100Z,58.70
2019-05-16T21:21:57.118Z,62.80
2019-05-16T21:24:26.617Z,67.27
2019-05-16T21:26:53.582Z,67.15
2019-05-16T21:29:20.873Z,63.28
2019-05-16T21:31:47.802Z,64.12
2019-05-16T21:34:16.108Z,64.77
2019-05-16T21:36:46.847Z,63.80
2019-05-16T21:39:13.877Z,63.38
2019-05-16T21:41:40.889Z,63.05
2019-05-16T21:44:07.914Z,64.95
2019-05-16T21:46:36.535Z,64.60
2019-05-16T21:49:03.936Z,66.62
2019-05-16T21:51:30.852Z,68.20
2019-05-16T21:53:57.993Z,71.28
2019-05-16T21:56:26.632Z,73.17
2019-05-16T21:58:54.080Z,73.42
2019-05-16T22:01:23.164Z,69.15
2019-05-16T22:03:50.569Z,72.03
2019-05-16T22:06:17.685Z,66.65
2019-05-16T22:08:46.761Z,68.42
2019-05-16T22:11:14.380Z,71.62
2019-05-16T22:13:41.491Z,70.37
2019-05-16T22:16:08.745Z,77.80
2019-05-16T22:18:38.272Z,77.65
2019-05-16T22:21:07.374Z,67.95
2019-05-16T22:23:34.167Z,70.08
2019-05-16T22:26:01.265Z,65.75
2019-05-16T22:28:30.105Z,65.17
2019-05-16T22:30:58.498Z,70.78
2019-05-16T22:33:26.753Z,68.87
2019-05-16T22:35:53.924Z,69.87
2019-05-16T22:38:21.165Z,70.35
2019-05-16T22:40:48.203Z,65.70
2019-05-16T22:43:17.243Z,63.28
2019-05-16T22:45:46.660Z,60.50
2019-05-16T22:48:13.447Z,61.15
2019-05-16T22:50:40.657Z,64.20
2019-05-16T22:53:07.784Z,71.05
2019-05-16T22:55:36.941Z,71.92
2019-05-16T22:58:04.205Z,69.58
2019-05-16T23:00:32.664Z,70.15
2019-05-16T23:02:59.987Z,70.75
2019-05-16T23:05:28.416Z,65.35
2019-05-16T23:08:05.023Z,66.42
2019-05-16T23:10:25.718Z,70.80
2019-05-16T23:12:53.721Z,69.27
2019-05-16T23:15:21.143Z,69.27
2019-05-16T23:17:48.343Z,78.55
2019-05-16T23:20:17.039Z,77.08
2019-05-16T23:22:46.817Z,78.33
2019-05-16T23:25:13.567Z,79.65
2019-05-16T23:27:40.746Z,79.40
2019-05-16T23:30:09.124Z,75.87
2019-05-16T23:32:36.561Z,71.85
2019-05-16T23:35:06.874Z,67.97
2019-05-16T23:37:34.179Z,72.92
2019-05-16T23:40:02.122Z,71.62
2019-05-16T23:42:29.486Z,78.50
2019-05-16T23:44:56.841Z,80.95
2019-05-16T23:47:24.647Z,77.80
2019-05-16T23:49:51.467Z,80.50
2019-05-16T23:52:18.844Z,76.47
2019-05-16T23:54:47.502Z,73.50
2019-05-16T23:57:14.675Z,78.22
2019-05-16T23:59:42.016Z,72.87
